Time;durP1;ratioP1;P1;durP2;ratioP2;P2;SDS_P1;SDS_P2;PMS_P1;PMS_P2;Temp;Humidity;BMP_temperature;BMP_pressure;BME280_temperature;BME280_humidity;BME280_pressure;Samples;Min_cycle;Max_cycle;Signal;HPM_P1;HPM_P2
2023/06/09 00:02:48;;;;;;;8.55;4.72;;;;;;;;;;5044175;28;20028;-68
2023/06/09 00:05:33;;;;;;;9.43;5.13;;;;;;;;;;5063957;28;20024;-69
2023/06/09 00:08:19;;;;;;;8.23;5.93;;;;;;;;;;5057385;28;20051;-67
2023/06/09 00:11:04;;;;;;;6.85;4.85;;;;;;;;;;5067326;28;20020;-68
2023/06/09 00:13:49;;;;;;;7.55;4.72;;;;;;;;;;5068064;28;20227;-68
2023/06/09 00:16:34;;;;;;;8.30;4.68;;;;;;;;;;5066638;28;20391;-67
2023/06/09 00:19:21;;;;;;;7.72;5.53;;;;;;;;;;5056270;28;20031;-66
2023/06/09 00:22:13;;;;;;;10.20;5.60;;;;;;;;;;5066486;28;20070;-68
2023/06/09 00:24:58;;;;;;;10.73;5.35;;;;;;;;;;5048816;28;20025;-64
2023/06/09 00:27:43;;;;;;;6.70;4.53;;;;;;;;;;5062359;28;20122;-65
2023/06/09 00:30:29;;;;;;;12.18;5.22;;;;;;;;;;5059945;28;20025;-66
2023/06/09 00:33:14;;;;;;;6.50;4.55;;;;;;;;;;5068490;28;20101;-66
2023/06/09 00:35:59;;;;;;;8.68;4.95;;;;;;;;;;5063820;28;20036;-65
2023/06/09 00:38:44;;;;;;;7.13;4.75;;;;;;;;;;5067996;28;20454;-66
2023/06/09 00:41:34;;;;;;;9.75;5.32;;;;;;;;;;5052059;28;20263;-66
2023/06/09 00:44:19;;;;;;;;;;;;;;;;;;5069871;28;20391;-70
2023/06/09 00:47:06;;;;;;;10.07;4.95;;;;;;;;;;5055167;28;19961;-77
2023/06/09 00:49:52;;;;;;;7.43;5.28;;;;;;;;;;5067671;28;20027;-76
2023/06/09 00:52:38;;;;;;;6.75;4.97;;;;;;;;;;5057350;28;20036;-76
2023/06/09 00:55:24;;;;;;;7.53;4.60;;;;;;;;;;5069740;28;20047;-77
2023/06/09 00:58:10;;;;;;;9.18;5.07;;;;;;;;;;5069970;28;20226;-77
2023/06/09 01:00:57;;;;;;;8.18;4.47;;;;;;;;;;5067518;28;20497;-64
2023/06/09 01:03:43;;;;;;;8.57;5.15;;;;;;;;;;5061199;28;20029;-70
2023/06/09 01:06:30;;;;;;;5.65;4.22;;;;;;;;;;5061357;28;20024;-69
2023/06/09 01:09:24;;;;;;;7.40;4.95;;;;;;;;;;5065925;28;20036;-70
2023/06/09 01:12:12;;;;;;;7.32;4.75;;;;;;;;;;5065087;28;20037;-72
2023/06/09 01:15:08;;;;;;;8.70;4.85;;;;;;;;;;5068571;28;20044;-69
2023/06/09 01:17:55;;;;;;;8.45;5.50;;;;;;;;;;5059815;28;20476;-70
2023/06/09 01:20:45;;;;;;;7.65;5.30;;;;;;;;;;5056548;28;20519;-67
2023/06/09 01:23:36;;;;;;;9.30;5.43;;;;;;;;;;5057871;28;20077;-70
2023/06/09 01:26:22;;;;;;;8.20;5.05;;;;;;;;;;5047652;28;20131;-70
2023/06/09 01:29:08;;;;;;;7.90;4.88;;;;;;;;;;5068222;28;20043;-70
2023/06/09 01:31:54;;;;;;;10.15;6.47;;;;;;;;;;5064436;28;20025;-69
2023/06/09 01:34:39;;;;;;;8.13;4.97;;;;;;;;;;5063704;28;20597;-69
2023/06/09 01:37:25;;;;;;;8.10;5.38;;;;;;;;;;5051674;28;20037;-71
2023/06/09 01:40:10;;;;;;;8.27;5.18;;;;;;;;;;5060837;28;20472;-65
2023/06/09 01:42:57;;;;;;;6.72;4.75;;;;;;;;;;5067248;28;20032;-65
2023/06/09 01:45:42;;;;;;;8.30;5.28;;;;;;;;;;5068712;28;20478;-63
2023/06/09 01:48:34;;;;;;;9.18;4.45;;;;;;;;;;5065779;28;20303;-64
2023/06/09 01:51:26;;;;;;;7.15;5.03;;;;;;;;;;5064346;28;20487;-65
2023/06/09 01:54:14;;;;;;;7.45;4.70;;;;;;;;;;5066448;28;20055;-64
2023/06/09 01:57:06;;;;;;;7.00;5.07;;;;;;;;;;5065841;28;20085;-67
2023/06/09 01:59:53;;;;;;;11.35;4.85;;;;;;;;;;5067419;28;20033;-71
2023/06/09 02:02:39;;;;;;;5.88;4.68;;;;;;;;;;5058923;28;20028;-72
2023/06/09 02:05:25;;;;;;;10.52;5.28;;;;;;;;;;5058956;28;20033;-69
2023/06/09 02:08:11;;;;;;;6.65;4.43;;;;;;;;;;5066066;28;20066;-70
2023/06/09 02:10:57;;;;;;;9.18;5.30;;;;;;;;;;5067289;28;20115;-69
2023/06/09 02:13:42;;;;;;;10.23;4.25;;;;;;;;;;5068793;28;20079;-70
2023/06/09 02:16:27;;;;;;;9.75;5.68;;;;;;;;;;5066755;28;20494;-66
2023/06/09 02:19:14;;;;;;;8.18;5.78;;;;;;;;;;5066962;28;20025;-64
2023/06/09 02:21:59;;;;;;;7.82;5.03;;;;;;;;;;5068639;28;20079;-63
2023/06/09 02:24:44;;;;;;;8.30;4.78;;;;;;;;;;5060733;28;20119;-64
2023/06/09 02:27:30;;;;;;;6.72;4.80;;;;;;;;;;5059498;28;20381;-64
2023/06/09 02:30:15;;;;;;;7.57;5.13;;;;;;;;;;5061154;28;20067;-67
2023/06/09 02:33:01;;;;;;;8.00;5.10;;;;;;;;;;5067632;28;20078;-69
2023/06/09 02:35:47;;;;;;;7.78;5.38;;;;;;;;;;5067823;28;20535;-70
2023/06/09 02:38:32;;;;;;;8.18;4.78;;;;;;;;;;5065841;28;20043;-69
2023/06/09 02:41:18;;;;;;;6.32;4.63;;;;;;;;;;5061780;28;20397;-69
2023/06/09 02:44:04;;;;;;;7.47;5.00;;;;;;;;;;5056529;28;20028;-71
2023/06/09 02:46:50;;;;;;;8.40;4.63;;;;;;;;;;5067386;28;20101;-71
2023/06/09 02:49:35;;;;;;;6.97;5.20;;;;;;;;;;5052642;28;20134;-71
2023/06/09 02:52:21;;;;;;;7.47;5.05;;;;;;;;;;5066487;28;20032;-69
2023/06/09 02:55:06;;;;;;;7.55;5.05;;;;;;;;;;5065274;28;20054;-77
2023/06/09 02:57:51;;;;;;;7.32;5.00;;;;;;;;;;5048839;28;20108;-76
2023/06/09 03:00:37;;;;;;;6.60;4.47;;;;;;;;;;5058634;28;20028;-75
2023/06/09 03:03:22;;;;;;;8.10;5.60;;;;;;;;;;5059530;28;20494;-75
2023/06/09 03:06:07;;;;;;;6.32;4.32;;;;;;;;;;5056867;28;20039;-75
2023/06/09 03:08:52;;;;;;;5.97;4.68;;;;;;;;;;5049823;28;20631;-76
2023/06/09 03:11:38;;;;;;;6.50;4.72;;;;;;;;;;5046377;28;20384;-68
2023/06/09 03:14:23;;;;;;;9.18;5.22;;;;;;;;;;5058029;28;20049;-79
2023/06/09 03:17:08;;;;;;;7.68;4.88;;;;;;;;;;5066189;28;20029;-79
2023/06/09 03:19:53;;;;;;;8.82;5.93;;;;;;;;;;5057508;28;20057;-78
2023/06/09 03:22:39;;;;;;;8.60;5.40;;;;;;;;;;5067984;28;20063;-79
2023/06/09 03:25:25;;;;;;;7.07;4.68;;;;;;;;;;5047952;28;20047;-79
2023/06/09 03:28:10;;;;;;;8.13;5.05;;;;;;;;;;5064852;28;20071;-72
2023/06/09 03:30:56;;;;;;;7.60;5.07;;;;;;;;;;5056769;28;20052;-72
2023/06/09 03:33:41;;;;;;;7.63;4.60;;;;;;;;;;5055828;28;20032;-72
2023/06/09 03:36:27;;;;;;;7.25;4.95;;;;;;;;;;5052136;28;20158;-72
2023/06/09 03:39:12;;;;;;;10.00;4.85;;;;;;;;;;5064070;28;20025;-74
2023/06/09 03:41:57;;;;;;;6.88;4.97;;;;;;;;;;5059993;28;20199;-75
2023/06/09 03:44:43;;;;;;;7.78;5.07;;;;;;;;;;5051710;28;20060;-72
2023/06/09 03:47:28;;;;;;;10.25;5.13;;;;;;;;;;5058905;28;20028;-69
2023/06/09 03:50:13;;;;;;;7.85;4.18;;;;;;;;;;5053735;28;20637;-70
2023/06/09 03:52:58;;;;;;;8.15;5.10;;;;;;;;;;5052238;28;20029;-68
2023/06/09 03:55:43;;;;;;;7.80;4.97;;;;;;;;;;5065022;28;20036;-68
2023/06/09 03:58:29;;;;;;;8.25;5.85;;;;;;;;;;5064543;28;20471;-69
2023/06/09 04:01:17;;;;;;;8.68;5.10;;;;;;;;;;5059897;28;20387;-67
2023/06/09 04:04:02;;;;;;;8.50;5.47;;;;;;;;;;5056604;28;20117;-67
2023/06/09 04:06:48;;;;;;;9.50;4.80;;;;;;;;;;5053903;28;20028;-70
2023/06/09 04:09:34;;;;;;;7.78;5.30;;;;;;;;;;5058173;28;20032;-71
2023/06/09 04:12:19;;;;;;;7.85;5.18;;;;;;;;;;5075143;28;20372;-70
2023/06/09 04:15:06;;;;;;;7.80;5.28;;;;;;;;;;5063250;28;20055;-72
2023/06/09 04:17:51;;;;;;;7.25;5.38;;;;;;;;;;5059186;28;20175;-69
2023/06/09 04:20:36;;;;;;;8.82;4.70;;;;;;;;;;5061799;28;20040;-72
2023/06/09 04:23:22;;;;;;;7.05;4.70;;;;;;;;;;5067309;28;20032;-62
2023/06/09 04:26:08;;;;;;;7.88;5.00;;;;;;;;;;5060491;28;20364;-71
2023/06/09 04:28:54;;;;;;;7.90;5.28;;;;;;;;;;5059465;28;20115;-69
2023/06/09 04:31:42;;;;;;;8.40;5.47;;;;;;;;;;5058387;28;20028;-71
2023/06/09 04:34:28;;;;;;;8.43;5.85;;;;;;;;;;5059772;28;20488;-69
2023/06/09 04:37:13;;;;;;;7.97;5.50;;;;;;;;;;5057181;28;20040;-70
2023/06/09 04:39:59;;;;;;;7.43;4.65;;;;;;;;;;5066061;28;20031;-70
2023/06/09 04:42:44;;;;;;;9.43;5.35;;;;;;;;;;5055951;28;20482;-69
2023/06/09 04:45:33;;;;;;;8.30;5.65;;;;;;;;;;5057118;28;20032;-77
2023/06/09 04:48:19;;;;;;;8.10;5.10;;;;;;;;;;5059205;28;20032;-76
2023/06/09 04:51:04;;;;;;;9.50;6.32;;;;;;;;;;5046081;28;20036;-78
2023/06/09 04:53:49;;;;;;;10.13;6.80;;;;;;;;;;5056901;28;20041;-76
2023/06/09 04:56:36;;;;;;;8.57;6.10;;;;;;;;;;5064367;28;20266;-77
2023/06/09 04:59:21;;;;;;;8.43;5.35;;;;;;;;;;5073711;28;20036;-77
2023/06/09 05:02:07;;;;;;;9.02;5.90;;;;;;;;;;5060978;28;20029;-71
2023/06/09 05:04:53;;;;;;;9.68;5.95;;;;;;;;;;5055852;28;20021;-68
2023/06/09 05:07:41;;;;;;;9.27;6.47;;;;;;;;;;5053676;28;20120;-69
2023/06/09 05:10:26;;;;;;;10.75;6.07;;;;;;;;;;5062990;28;20098;-70
2023/06/09 05:13:11;;;;;;;8.02;5.35;;;;;;;;;;5063087;28;20573;-70
2023/06/09 05:15:57;;;;;;;12.35;5.75;;;;;;;;;;5058021;28;20044;-69
2023/06/09 05:18:42;;;;;;;8.48;6.15;;;;;;;;;;5060353;28;20051;-69
2023/06/09 05:21:27;;;;;;;9.50;6.80;;;;;;;;;;5057406;28;20060;-69
2023/06/09 05:24:13;;;;;;;7.82;5.75;;;;;;;;;;5061683;28;20035;-71
2023/06/09 05:26:58;;;;;;;8.93;5.70;;;;;;;;;;5055622;28;20055;-70
2023/06/09 05:29:44;;;;;;;9.05;5.75;;;;;;;;;;5061134;28;20082;-71
2023/06/09 05:32:29;;;;;;;9.57;6.07;;;;;;;;;;5061576;28;20039;-70
2023/06/09 05:35:14;;;;;;;9.07;6.93;;;;;;;;;;5060502;28;20115;-71
2023/06/09 05:37:59;;;;;;;9.32;6.22;;;;;;;;;;5054754;28;20033;-65
2023/06/09 05:40:45;;;;;;;11.95;5.57;;;;;;;;;;5061836;28;20044;-70
2023/06/09 05:43:30;;;;;;;9.88;6.47;;;;;;;;;;5056801;28;20040;-69
2023/06/09 05:46:15;;;;;;;10.77;6.38;;;;;;;;;;5045943;28;20070;-71
2023/06/09 05:49:00;;;;;;;11.38;6.30;;;;;;;;;;5063042;28;20021;-70
2023/06/09 05:51:46;;;;;;;12.20;6.00;;;;;;;;;;5057921;28;20044;-69
2023/06/09 05:54:31;;;;;;;8.48;5.97;;;;;;;;;;5059672;28;20670;-70
2023/06/09 05:57:18;;;;;;;9.43;6.78;;;;;;;;;;5059726;28;20486;-73
2023/06/09 06:00:09;;;;;;;9.15;6.10;;;;;;;;;;5062711;28;20044;-70
2023/06/09 06:02:55;;;;;;;8.38;5.60;;;;;;;;;;5058955;28;20097;-66
2023/06/09 06:05:40;;;;;;;6.80;4.97;;;;;;;;;;5058693;28;20037;-65
2023/06/09 06:08:25;;;;;;;7.90;4.80;;;;;;;;;;5055671;28;20732;-66
2023/06/09 06:11:10;;;;;;;6.95;5.05;;;;;;;;;;5061400;28;20039;-66
2023/06/09 06:13:56;;;;;;;8.32;5.45;;;;;;;;;;5056514;28;20053;-66
2023/06/09 06:16:41;;;;;;;9.98;5.45;;;;;;;;;;5061140;28;20374;-71
2023/06/09 06:19:26;;;;;;;7.15;5.00;;;;;;;;;;5064941;28;20101;-70
2023/06/09 06:22:11;;;;;;;7.57;4.10;;;;;;;;;;5047139;28;20079;-73
2023/06/09 06:24:57;;;;;;;9.77;4.25;;;;;;;;;;5060697;28;20021;-71
2023/06/09 06:27:42;;;;;;;7.40;4.45;;;;;;;;;;5059698;28;20103;-74
2023/06/09 06:30:29;;;;;;;5.90;4.18;;;;;;;;;;5060980;28;20028;-72
2023/06/09 06:33:15;;;;;;;7.90;4.18;;;;;;;;;;5058232;28;20043;-71
2023/06/09 06:36:00;;;;;;;5.40;4.55;;;;;;;;;;5054890;28;20472;-75
2023/06/09 06:38:45;;;;;;;6.22;4.22;;;;;;;;;;5055138;28;20087;-74
2023/06/09 06:41:31;;;;;;;6.13;4.13;;;;;;;;;;5055577;28;20029;-75
2023/06/09 06:44:16;;;;;;;6.75;4.45;;;;;;;;;;5051797;28;20040;-76
2023/06/09 06:47:01;;;;;;;10.07;4.43;;;;;;;;;;5058647;28;20108;-76
2023/06/09 06:49:46;;;;;;;9.50;6.05;;;;;;;;;;5062698;28;20032;-75
2023/06/09 06:52:33;;;;;;;7.22;4.82;;;;;;;;;;5059630;28;20055;-71
2023/06/09 06:55:18;;;;;;;9.52;5.90;;;;;;;;;;5064323;28;20464;-66
2023/06/09 06:58:03;;;;;;;10.45;5.68;;;;;;;;;;5058016;28;20060;-66
2023/06/09 07:00:48;;;;;;;8.85;5.50;;;;;;;;;;5056515;28;20086;-66
2023/06/09 07:03:35;;;;;;;6.97;5.82;;;;;;;;;;5045263;28;20028;-65
2023/06/09 07:06:20;;;;;;;8.93;5.25;;;;;;;;;;5073808;28;20046;-65
2023/06/09 07:09:05;;;;;;;7.90;5.53;;;;;;;;;;5064270;28;20024;-70
2023/06/09 07:11:50;;;;;;;8.90;6.57;;;;;;;;;;5065500;28;20047;-67
2023/06/09 07:14:36;;;;;;;8.43;6.15;;;;;;;;;;5061510;28;20399;-67
2023/06/09 07:17:21;;;;;;;8.73;5.35;;;;;;;;;;5063901;28;20020;-67
2023/06/09 07:20:06;;;;;;;10.32;4.97;;;;;;;;;;5063321;28;20490;-67
2023/06/09 07:22:52;;;;;;;10.82;5.68;;;;;;;;;;5055391;28;20282;-70
2023/06/09 07:25:37;;;;;;;8.05;5.50;;;;;;;;;;5047279;28;20390;-66
2023/06/09 07:28:22;;;;;;;8.00;6.10;;;;;;;;;;5065056;28;20398;-71
2023/06/09 07:31:07;;;;;;;10.00;5.10;;;;;;;;;;5054366;28;20039;-67
2023/06/09 07:33:53;;;;;;;8.40;5.78;;;;;;;;;;5058027;28;20433;-73
2023/06/09 07:36:40;;;;;;;13.88;5.97;;;;;;;;;;5057315;28;20043;-73
2023/06/09 07:39:25;;;;;;;9.05;5.03;;;;;;;;;;5052412;28;20835;-85
2023/06/09 07:42:11;;;;;;;11.15;4.95;;;;;;;;;;5070169;28;20081;-72
2023/06/09 07:44:56;;;;;;;8.98;5.10;;;;;;;;;;5058443;28;20028;-74
2023/06/09 07:47:41;;;;;;;10.32;4.68;;;;;;;;;;5059088;28;20029;-69
2023/06/09 07:50:26;;;;;;;6.53;4.32;;;;;;;;;;5056583;28;20070;-72
2023/06/09 07:53:11;;;;;;;10.10;4.55;;;;;;;;;;5070116;28;20121;-70
2023/06/09 07:55:57;;;;;;;8.15;4.30;;;;;;;;;;5053641;28;20086;-75
2023/06/09 07:58:42;;;;;;;5.72;3.97;;;;;;;;;;5061258;28;20047;-68
2023/06/09 08:01:29;;;;;;;7.05;4.80;;;;;;;;;;5061187;28;20025;-70
2023/06/09 08:04:14;;;;;;;10.75;4.50;;;;;;;;;;5057065;28;20502;-67
2023/06/09 08:06:59;;;;;;;5.00;3.58;;;;;;;;;;5050993;28;20032;-70
2023/06/09 08:09:45;;;;;;;7.05;4.03;;;;;;;;;;5068725;28;20024;-70
2023/06/09 08:12:30;;;;;;;5.95;3.65;;;;;;;;;;5070630;28;20020;-69
2023/06/09 08:15:15;;;;;;;6.60;4.35;;;;;;;;;;5068554;28;20052;-70
2023/06/09 08:18:00;;;;;;;6.90;4.63;;;;;;;;;;5068428;28;20028;-68
2023/06/09 08:20:46;;;;;;;8.45;4.88;;;;;;;;;;5059954;28;20047;-70
2023/06/09 08:23:32;;;;;;;10.80;4.57;;;;;;;;;;5066520;28;20111;-66
2023/06/09 08:26:17;;;;;;;6.50;4.10;;;;;;;;;;5058064;28;20597;-73
2023/06/09 08:29:06;;;;;;;8.77;4.68;;;;;;;;;;5044669;28;20029;-75
2023/06/09 08:31:51;;;;;;;6.88;4.43;;;;;;;;;;5056400;28;20062;-76
2023/06/09 08:34:37;;;;;;;8.80;4.88;;;;;;;;;;5069705;28;20037;-74
2023/06/09 08:37:25;;;;;;;7.68;4.65;;;;;;;;;;5071864;28;20035;-72
2023/06/09 08:40:10;;;;;;;7.07;4.28;;;;;;;;;;5063064;28;20047;-71
2023/06/09 08:42:56;;;;;;;6.22;4.47;;;;;;;;;;5065047;28;20025;-67
2023/06/09 08:45:45;;;;;;;8.57;4.53;;;;;;;;;;5059444;28;20121;-68
2023/06/09 08:48:31;;;;;;;8.50;5.03;;;;;;;;;;5060895;28;20460;-68
2023/06/09 08:51:16;;;;;;;4.85;4.00;;;;;;;;;;5059065;28;20040;-69
2023/06/09 08:54:01;;;;;;;6.05;4.32;;;;;;;;;;5067899;28;20064;-68
2023/06/09 08:56:47;;;;;;;5.72;4.45;;;;;;;;;;5067958;28;20032;-67
2023/06/09 08:59:33;;;;;;;6.18;4.30;;;;;;;;;;5072626;28;20537;-65
2023/06/09 09:02:19;;;;;;;11.43;5.68;;;;;;;;;;5075596;28;20036;-65
2023/06/09 09:05:04;;;;;;;5.47;3.72;;;;;;;;;;5069642;28;20016;-64
2023/06/09 09:07:49;;;;;;;6.82;4.15;;;;;;;;;;5070239;28;20024;-65
2023/06/09 09:10:35;;;;;;;6.90;4.03;;;;;;;;;;5068424;28;20038;-65
2023/06/09 09:13:24;;;;;;;7.30;3.97;;;;;;;;;;5065707;28;20053;-65
2023/06/09 09:16:16;;;;;;;5.28;3.67;;;;;;;;;;5066732;28;20041;-65
2023/06/09 09:19:02;;;;;;;5.22;3.88;;;;;;;;;;5076825;28;20071;-65
2023/06/09 09:21:47;;;;;;;6.60;4.15;;;;;;;;;;5070285;28;20039;-69
2023/06/09 09:24:33;;;;;;;9.32;3.65;;;;;;;;;;5069401;28;20026;-69
2023/06/09 09:27:21;;;;;;;7.00;4.10;;;;;;;;;;5064044;28;20029;-69
2023/06/09 09:30:06;;;;;;;5.35;3.60;;;;;;;;;;5064877;28;20023;-69
2023/06/09 09:32:53;;;;;;;7.22;3.90;;;;;;;;;;5069382;28;20036;-69
2023/06/09 09:35:39;;;;;;;8.10;4.22;;;;;;;;;;5066935;28;20098;-69
2023/06/09 09:38:25;;;;;;;9.25;3.90;;;;;;;;;;5068043;28;20538;-64
2023/06/09 09:41:14;;;;;;;5.03;3.30;;;;;;;;;;5071603;28;20040;-71
2023/06/09 09:44:00;;;;;;;3.75;2.78;;;;;;;;;;5072440;28;20114;-70
2023/06/09 09:46:45;;;;;;;8.13;3.50;;;;;;;;;;5067409;28;20044;-68
2023/06/09 09:49:30;;;;;;;3.90;2.83;;;;;;;;;;5070905;28;20048;-70
2023/06/09 09:52:21;;;;;;;7.50;3.33;;;;;;;;;;5065094;28;20739;-71
2023/06/09 09:55:09;;;;;;;5.55;3.38;;;;;;;;;;5067197;28;20107;-66
2023/06/09 09:57:55;;;;;;;4.40;2.70;;;;;;;;;;5075572;28;20619;-65
2023/06/09 10:00:41;;;;;;;3.53;2.67;;;;;;;;;;5081607;28;20036;-68
2023/06/09 10:03:27;;;;;;;5.07;2.65;;;;;;;;;;5068950;28;20050;-70
2023/06/09 10:06:14;;;;;;;3.17;2.88;;;;;;;;;;5077982;28;20039;-67
2023/06/09 10:09:00;;;;;;;4.57;2.83;;;;;;;;;;5073015;28;20032;-68
2023/06/09 10:11:45;;;;;;;3.03;2.50;;;;;;;;;;5083075;28;20032;-65
2023/06/09 10:14:31;;;;;;;4.28;2.70;;;;;;;;;;5062854;28;20211;-71
2023/06/09 10:17:20;;;;;;;4.38;2.85;;;;;;;;;;5074267;28;20371;-69
2023/06/09 10:20:08;;;;;;;4.60;2.97;;;;;;;;;;5058234;28;20031;-67
2023/06/09 10:22:53;;;;;;;5.18;3.08;;;;;;;;;;5062502;28;20115;-70
2023/06/09 10:25:39;;;;;;;6.90;3.35;;;;;;;;;;5061463;28;20379;-73
2023/06/09 10:28:24;;;;;;;5.30;3.08;;;;;;;;;;5059973;28;20047;-68
2023/06/09 10:31:11;;;;;;;6.82;4.07;;;;;;;;;;5060290;28;20017;-68
2023/06/09 10:33:56;;;;;;;4.18;2.58;;;;;;;;;;5062906;28;20032;-67
2023/06/09 10:36:43;;;;;;;4.95;3.30;;;;;;;;;;5060340;28;20110;-71
2023/06/09 10:39:44;;;;;;;3.58;2.65;;;;;;;;;;5059126;28;20115;-66
2023/06/09 10:42:43;;;;;;;3.05;2.60;;;;;;;;;;5057555;28;20495;-68
2023/06/09 10:45:46;;;;;;;3.80;2.85;;;;;;;;;;5062710;28;20176;-70
2023/06/09 10:48:50;;;;;;;3.17;2.60;;;;;;;;;;5057774;28;20025;-70
2023/06/09 10:51:39;;;;;;;7.82;3.38;;;;;;;;;;5060155;28;20038;-70
2023/06/09 10:54:27;;;;;;;2.72;2.47;;;;;;;;;;5057637;28;20472;-69
2023/06/09 10:57:37;;;;;;;5.38;2.90;;;;;;;;;;5061460;28;20031;-66
2023/06/09 11:00:23;;;;;;;7.30;3.08;;;;;;;;;;5060637;28;20166;-69
2023/06/09 11:03:11;;;;;;;6.22;2.55;;;;;;;;;;5063930;28;20131;-68
2023/06/09 11:06:00;;;;;;;4.83;3.07;;;;;;;;;;5065381;28;20064;-70
2023/06/09 11:09:00;;;;;;;4.43;2.78;;;;;;;;;;5061844;28;20282;-66
2023/06/09 11:11:50;;;;;;;3.60;2.72;;;;;;;;;;5060718;28;20479;-70
2023/06/09 11:14:48;;;;;;;5.72;2.83;;;;;;;;;;5062747;28;20117;-73
2023/06/09 11:17:37;;;;;;;4.07;2.63;;;;;;;;;;5078231;28;20036;-72
2023/06/09 11:20:25;;;;;;;;;;;;;;;;;;5063532;28;20192;-71
2023/06/09 11:23:10;;;;;;;3.25;2.20;;;;;;;;;;5054963;28;19939;-71
2023/06/09 11:25:56;;;;;;;3.20;2.33;;;;;;;;;;5055402;28;20476;-67
2023/06/09 11:28:41;;;;;;;3.47;2.33;;;;;;;;;;5055779;28;20067;-68
2023/06/09 11:31:26;;;;;;;5.15;2.60;;;;;;;;;;5061228;28;20032;-71
2023/06/09 11:34:32;;;;;;;4.88;2.63;;;;;;;;;;5063876;28;20562;-75
2023/06/09 11:37:18;;;;;;;5.05;2.85;;;;;;;;;;5046790;28;20499;-71
2023/06/09 11:40:05;;;;;;;6.53;3.28;;;;;;;;;;5063391;28;20047;-73
2023/06/09 11:42:51;;;;;;;16.95;4.47;;;;;;;;;;5060790;28;20117;-71
2023/06/09 11:45:36;;;;;;;17.75;6.03;;;;;;;;;;5062111;28;20036;-75
2023/06/09 11:48:22;;;;;;;4.78;2.83;;;;;;;;;;5063685;28;20638;-75
2023/06/09 11:51:07;;;;;;;5.82;2.40;;;;;;;;;;5048875;28;20036;-78
2023/06/09 11:53:52;;;;;;;3.70;2.40;;;;;;;;;;5060985;28;20538;-74
2023/06/09 11:56:37;;;;;;;8.13;3.53;;;;;;;;;;5058940;28;20032;-76
2023/06/09 11:59:23;;;;;;;3.95;2.55;;;;;;;;;;5061937;28;20431;-77
2023/06/09 12:02:09;;;;;;;4.68;2.60;;;;;;;;;;5058116;28;20044;-80
2023/06/09 12:04:55;;;;;;;3.17;2.33;;;;;;;;;;5063101;28;20024;-64
2023/06/09 12:07:44;;;;;;;3.47;2.58;;;;;;;;;;5053040;28;20020;-82
2023/06/09 12:10:30;;;;;;;4.03;2.35;;;;;;;;;;5065590;28;20473;-79
2023/06/09 12:13:16;;;;;;;5.47;2.75;;;;;;;;;;5055827;28;20042;-79
2023/06/09 12:16:01;;;;;;;2.97;2.55;;;;;;;;;;5076087;28;20036;-78
2023/06/09 12:18:46;;;;;;;4.38;2.50;;;;;;;;;;5068336;28;20033;-78
2023/06/09 12:21:32;;;;;;;4.78;2.70;;;;;;;;;;5069739;28;20028;-82
2023/06/09 12:24:18;;;;;;;4.30;2.70;;;;;;;;;;5067335;28;20040;-74
2023/06/09 12:27:10;;;;;;;4.13;2.63;;;;;;;;;;5075666;28;20467;-72
2023/06/09 12:29:56;;;;;;;2.47;2.22;;;;;;;;;;5072902;28;20035;-70
2023/06/09 12:32:41;;;;;;;3.67;2.38;;;;;;;;;;5068468;28;20037;-71
2023/06/09 12:35:26;;;;;;;3.20;2.60;;;;;;;;;;5067963;28;20149;-70
2023/06/09 12:38:16;;;;;;;4.07;2.15;;;;;;;;;;5070572;28;20023;-71
2023/06/09 12:41:06;;;;;;;3.40;2.60;;;;;;;;;;5073220;28;20422;-73
2023/06/09 12:43:54;;;;;;;3.15;2.03;;;;;;;;;;5049902;28;20086;-74
2023/06/09 12:46:40;;;;;;;4.30;2.95;;;;;;;;;;5065745;28;20075;-72
2023/06/09 12:49:30;;;;;;;3.42;2.15;;;;;;;;;;5074088;28;20032;-74
2023/06/09 12:52:15;;;;;;;4.13;2.45;;;;;;;;;;5070412;28;20036;-75
2023/06/09 12:55:00;;;;;;;3.47;2.45;;;;;;;;;;5061341;28;20456;-75
2023/06/09 12:57:46;;;;;;;2.55;1.88;;;;;;;;;;5066597;28;20083;-74
2023/06/09 13:00:31;;;;;;;3.38;2.22;;;;;;;;;;5069374;28;20484;-68
2023/06/09 13:03:18;;;;;;;3.47;2.47;;;;;;;;;;5067568;28;20426;-65
2023/06/09 13:06:03;;;;;;;2.95;2.33;;;;;;;;;;5069118;28;20475;-64
2023/06/09 13:08:48;;;;;;;2.40;2.13;;;;;;;;;;5073539;28;20037;-64
2023/06/09 13:11:34;;;;;;;5.15;2.60;;;;;;;;;;5067586;28;20582;-63
2023/06/09 13:14:19;;;;;;;3.58;2.90;;;;;;;;;;5068683;28;20048;-68
2023/06/09 13:17:05;;;;;;;2.95;2.40;;;;;;;;;;5059736;28;20032;-72
2023/06/09 13:19:50;;;;;;;3.50;2.90;;;;;;;;;;5050415;28;20032;-77
2023/06/09 13:22:35;;;;;;;3.65;2.80;;;;;;;;;;5069016;28;20033;-78
2023/06/09 13:25:20;;;;;;;3.42;2.53;;;;;;;;;;5068514;28;20407;-78
2023/06/09 13:28:06;;;;;;;4.88;3.10;;;;;;;;;;5041042;28;20155;-80
2023/06/09 13:30:52;;;;;;;3.78;2.85;;;;;;;;;;5068272;28;20237;-79
2023/06/09 13:33:37;;;;;;;3.15;2.60;;;;;;;;;;5064398;28;20514;-77
2023/06/09 13:36:22;;;;;;;4.07;2.80;;;;;;;;;;5062400;28;20064;-68
2023/06/09 13:39:07;;;;;;;4.15;2.85;;;;;;;;;;5069365;28;20048;-69
2023/06/09 13:41:53;;;;;;;7.25;3.05;;;;;;;;;;5066009;28;20485;-67
2023/06/09 13:44:39;;;;;;;3.50;2.50;;;;;;;;;;5068820;28;20102;-68
2023/06/09 13:47:24;;;;;;;3.22;2.50;;;;;;;;;;5053359;28;20020;-69
2023/06/09 13:50:09;;;;;;;5.07;2.60;;;;;;;;;;5066225;28;20505;-69
2023/06/09 13:52:54;;;;;;;3.03;2.58;;;;;;;;;;5065335;28;20468;-68
2023/06/09 13:55:40;;;;;;;4.63;2.40;;;;;;;;;;5067219;28;20074;-69
2023/06/09 13:58:26;;;;;;;3.95;2.95;;;;;;;;;;5069247;28;20043;-71
2023/06/09 14:01:11;;;;;;;2.60;2.30;;;;;;;;;;5066907;28;20107;-72
2023/06/09 14:03:56;;;;;;;4.05;2.80;;;;;;;;;;5062409;28;20033;-69
2023/06/09 14:06:41;;;;;;;3.78;2.35;;;;;;;;;;5068289;28;20024;-71
2023/06/09 14:09:28;;;;;;;4.28;2.55;;;;;;;;;;5071115;28;20046;-71
2023/06/09 14:12:13;;;;;;;4.00;2.72;;;;;;;;;;5069309;28;20029;-80
2023/06/09 14:14:58;;;;;;;5.18;2.78;;;;;;;;;;5061567;28;20508;-75
2023/06/09 14:17:50;;;;;;;5.90;2.55;;;;;;;;;;5067242;28;20020;-73
2023/06/09 14:20:35;;;;;;;4.55;2.58;;;;;;;;;;5065971;28;20039;-73
2023/06/09 14:23:20;;;;;;;4.20;2.70;;;;;;;;;;5068950;28;20043;-72
2023/06/09 14:26:07;;;;;;;3.58;2.72;;;;;;;;;;5059341;28;20131;-73
2023/06/09 14:28:52;;;;;;;8.05;2.72;;;;;;;;;;5057554;28;20116;-72
2023/06/09 14:31:37;;;;;;;3.30;2.40;;;;;;;;;;5068170;28;20043;-64
2023/06/09 14:34:22;;;;;;;4.07;2.70;;;;;;;;;;5065651;28;20039;-71
2023/06/09 14:37:07;;;;;;;2.97;1.95;;;;;;;;;;5064256;28;20032;-70
2023/06/09 14:39:53;;;;;;;4.15;2.22;;;;;;;;;;5062666;28;20538;-69
2023/06/09 14:42:38;;;;;;;2.92;2.42;;;;;;;;;;5058601;28;20424;-70
2023/06/09 14:45:24;;;;;;;3.33;2.67;;;;;;;;;;5066105;28;20119;-70
2023/06/09 14:48:09;;;;;;;4.25;2.35;;;;;;;;;;5067733;28;20035;-70
2023/06/09 14:50:55;;;;;;;4.90;2.70;;;;;;;;;;5063301;28;20045;-72
2023/06/09 14:53:40;;;;;;;3.45;2.35;;;;;;;;;;5061043;28;20057;-72
2023/06/09 14:56:26;;;;;;;3.67;2.65;;;;;;;;;;5067536;28;20036;-71
2023/06/09 14:59:11;;;;;;;3.80;2.55;;;;;;;;;;5066422;28;20578;-73
2023/06/09 15:01:56;;;;;;;3.85;2.60;;;;;;;;;;5048865;28;20065;-70
2023/06/09 15:04:41;;;;;;;3.28;2.67;;;;;;;;;;5055117;28;20120;-70
2023/06/09 15:07:26;;;;;;;4.97;2.55;;;;;;;;;;5066015;28;20020;-69
2023/06/09 15:10:12;;;;;;;3.25;2.45;;;;;;;;;;5066273;28;20032;-66
2023/06/09 15:12:57;;;;;;;5.47;2.63;;;;;;;;;;5066736;28;20021;-66
2023/06/09 15:15:44;;;;;;;4.70;2.65;;;;;;;;;;5043686;28;20123;-68
2023/06/09 15:18:31;;;;;;;4.57;2.60;;;;;;;;;;5066616;28;20119;-67
2023/06/09 15:21:16;;;;;;;3.85;2.67;;;;;;;;;;5081076;28;20036;-67
2023/06/09 15:24:02;;;;;;;4.60;2.70;;;;;;;;;;5064418;28;20032;-72
2023/06/09 15:26:48;;;;;;;4.07;2.63;;;;;;;;;;5063361;28;20503;-71
2023/06/09 15:29:33;;;;;;;4.80;2.88;;;;;;;;;;5064657;28;20383;-76
2023/06/09 15:32:18;;;;;;;4.32;2.95;;;;;;;;;;5068059;28;20030;-76
2023/06/09 15:35:03;;;;;;;3.05;2.40;;;;;;;;;;5066567;28;20047;-75
2023/06/09 15:37:49;;;;;;;3.38;2.53;;;;;;;;;;5061343;28;20041;-75
2023/06/09 15:40:38;;;;;;;4.25;2.60;;;;;;;;;;5053126;28;20111;-75
2023/06/09 15:43:26;;;;;;;2.97;2.50;;;;;;;;;;5061100;28;20037;-76
2023/06/09 15:46:11;;;;;;;3.92;2.65;;;;;;;;;;5053306;28;20489;-68
2023/06/09 15:48:57;;;;;;;4.30;2.85;;;;;;;;;;5057638;28;20047;-73
2023/06/09 15:51:42;;;;;;;5.75;2.80;;;;;;;;;;5064859;28;20028;-73
2023/06/09 15:54:28;;;;;;;5.93;2.45;;;;;;;;;;5064900;28;20035;-71
2023/06/09 15:57:13;;;;;;;3.85;2.55;;;;;;;;;;5064489;28;20042;-70
2023/06/09 15:59:58;;;;;;;3.25;2.45;;;;;;;;;;5057804;28;20439;-70
2023/06/09 16:02:44;;;;;;;3.33;2.30;;;;;;;;;;5051498;28;20048;-71
2023/06/09 16:05:30;;;;;;;3.42;2.30;;;;;;;;;;5057356;28;20020;-68
2023/06/09 16:08:15;;;;;;;5.07;2.42;;;;;;;;;;5071196;28;20511;-68
2023/06/09 16:11:01;;;;;;;3.75;2.40;;;;;;;;;;5066095;28;20489;-69
2023/06/09 16:13:46;;;;;;;3.03;2.50;;;;;;;;;;5063212;28;20059;-68
2023/06/09 16:16:31;;;;;;;5.22;2.60;;;;;;;;;;5056914;28;20068;-68
2023/06/09 16:19:16;;;;;;;5.20;2.83;;;;;;;;;;5067048;28;20096;-68
2023/06/09 16:22:01;;;;;;;9.18;3.30;;;;;;;;;;5067841;28;20529;-67
2023/06/09 16:24:47;;;;;;;5.47;3.67;;;;;;;;;;5048149;28;20029;-73
2023/06/09 16:27:32;;;;;;;3.42;2.55;;;;;;;;;;5061596;28;20086;-64
2023/06/09 16:30:17;;;;;;;4.35;3.38;;;;;;;;;;5066663;28;20032;-67
2023/06/09 16:33:06;;;;;;;4.50;3.17;;;;;;;;;;5065204;28;20487;-67
2023/06/09 16:35:51;;;;;;;4.13;2.92;;;;;;;;;;5064219;28;20048;-64
2023/06/09 16:38:38;;;;;;;4.38;2.75;;;;;;;;;;5064157;28;20535;-64